createdAt,value
2018-09-08T00:00:49.461Z,1.80
2018-09-08T00:03:20.938Z,2.30
2018-09-08T00:05:52.412Z,1.93
2018-09-08T00:08:23.860Z,1.70
2018-09-08T00:10:55.320Z,1.73
2018-09-08T00:13:26.790Z,1.70
2018-09-08T00:16:03.902Z,2.20
2018-09-08T00:18:41.185Z,2.17
2018-09-08T00:21:18.260Z,1.70
2018-09-08T00:23:55.529Z,2.07
2018-09-08T00:26:32.584Z,1.50
2018-09-08T00:29:09.749Z,2.00
2018-09-08T00:31:41.244Z,1.83
2018-09-08T00:34:12.710Z,2.13
2018-09-08T00:36:44.157Z,1.90
2018-09-08T00:39:15.642Z,1.57
2018-09-08T00:41:47.101Z,2.10
2018-09-08T00:44:18.608Z,1.50
2018-09-08T00:46:50.090Z,1.70
2018-09-08T00:49:21.565Z,1.63
2018-09-08T00:51:53.042Z,2.10
2018-09-08T00:54:24.484Z,1.67
2018-09-08T00:56:55.945Z,1.37
2018-09-08T00:59:27.409Z,1.80
2018-09-08T01:01:58.859Z,1.60
2018-09-08T01:04:30.370Z,1.40
2018-09-08T01:07:01.902Z,1.37
2018-09-08T01:09:33.369Z,1.40
2018-09-08T01:12:04.841Z,1.23
2018-09-08T01:14:36.313Z,1.17
2018-09-08T01:17:07.772Z,1.70
2018-09-08T01:19:39.222Z,1.37
2018-09-08T01:22:10.665Z,1.60
2018-09-08T01:24:42.125Z,1.50
2018-09-08T01:29:51.853Z,1.40
2018-09-08T01:32:23.309Z,1.40
2018-09-08T01:34:54.756Z,1.60
2018-09-08T01:37:26.230Z,1.63
2018-09-08T01:39:57.718Z,1.23
2018-09-08T01:42:29.164Z,1.67
2018-09-08T01:45:00.674Z,1.40
2018-09-08T01:47:32.124Z,1.23
2018-09-08T01:50:03.846Z,1.30
2018-09-08T01:52:35.324Z,1.30
2018-09-08T01:55:06.772Z,0.97
2018-09-08T01:57:38.246Z,1.20
2018-09-08T02:00:09.754Z,1.23
2018-09-08T02:02:41.214Z,1.23
2018-09-08T02:05:12.685Z,1.33
2018-09-08T02:07:44.148Z,1.33
2018-09-08T02:10:15.606Z,1.20
2018-09-08T02:12:47.084Z,1.20
2018-09-08T02:15:18.656Z,1.27
2018-09-08T02:17:50.113Z,1.00
2018-09-08T02:20:21.567Z,1.43
2018-09-08T02:22:53.013Z,1.23
2018-09-08T02:25:24.547Z,1.03
2018-09-08T02:27:55.937Z,0.97
2018-09-08T02:30:27.406Z,0.90
2018-09-08T02:32:58.883Z,1.10
2018-09-08T02:35:30.362Z,1.23
2018-09-08T02:38:01.837Z,0.87
2018-09-08T02:40:33.298Z,1.40
2018-09-08T02:43:04.785Z,1.20
2018-09-08T02:45:36.552Z,1.20
2018-09-08T02:48:08.007Z,0.97
2018-09-08T02:50:40.108Z,1.33
2018-09-08T02:53:12.360Z,1.50
2018-09-08T02:55:43.366Z,1.00
2018-09-08T02:58:14.348Z,1.07
2018-09-08T03:00:45.398Z,0.90
2018-09-08T03:03:16.387Z,0.90
2018-09-08T03:05:47.372Z,0.90
2018-09-08T03:08:18.373Z,0.90
2018-09-08T03:10:49.365Z,0.80
2018-09-08T03:13:20.367Z,0.93
2018-09-08T03:15:51.346Z,1.03
2018-09-08T03:18:22.372Z,1.10
2018-09-08T03:20:53.348Z,0.90
2018-09-08T03:23:24.360Z,0.90
2018-09-08T03:25:55.355Z,0.90
2018-09-08T03:28:26.360Z,0.93
2018-09-08T03:30:57.345Z,1.00
2018-09-08T03:33:28.346Z,0.90
2018-09-08T03:35:59.343Z,0.80
2018-09-08T03:38:30.336Z,1.00
2018-09-08T03:41:01.317Z,0.80
2018-09-08T03:43:32.308Z,1.10
2018-09-08T03:46:03.349Z,0.80
2018-09-08T03:48:34.326Z,0.70
2018-09-08T03:51:05.328Z,0.80
2018-09-08T03:53:36.324Z,0.70
2018-09-08T03:56:07.350Z,0.90
2018-09-08T03:58:38.341Z,1.10
2018-09-08T04:01:09.331Z,1.00
2018-09-08T04:03:40.790Z,0.70
2018-09-08T04:06:12.256Z,0.87
2018-09-08T04:08:43.817Z,0.90
2018-09-08T04:11:15.524Z,0.80
2018-09-08T04:13:46.942Z,1.07
2018-09-08T04:16:18.408Z,0.80
2018-09-08T04:18:49.861Z,0.87
2018-09-08T04:21:21.335Z,1.10
2018-09-08T04:23:52.810Z,0.80
2018-09-08T04:26:24.247Z,0.90
2018-09-08T04:28:55.701Z,0.93
2018-09-08T04:31:27.166Z,1.10
2018-09-08T04:33:58.634Z,0.97
2018-09-08T04:36:30.094Z,0.93
2018-09-08T04:39:01.554Z,0.70
2018-09-08T04:41:33.001Z,0.63
2018-09-08T04:44:04.493Z,0.70
2018-09-08T04:46:35.969Z,0.77
2018-09-08T04:49:07.530Z,0.90
2018-09-08T04:51:38.983Z,0.93
2018-09-08T04:54:10.425Z,1.13
2018-09-08T04:56:41.877Z,1.00
2018-09-08T04:59:13.321Z,0.80
2018-09-08T05:01:44.781Z,0.70
2018-09-08T05:04:16.363Z,0.70
2018-09-08T05:06:47.721Z,0.67
2018-09-08T05:09:19.182Z,0.60
2018-09-08T05:11:50.658Z,0.67
2018-09-08T05:14:22.132Z,0.60
2018-09-08T05:16:53.593Z,0.60
2018-09-08T05:19:25.074Z,0.50
2018-09-08T05:21:56.513Z,0.80
2018-09-08T05:24:27.979Z,0.90
2018-09-08T05:26:59.455Z,0.90
2018-09-08T05:29:30.916Z,0.80
2018-09-08T05:32:02.364Z,0.90
2018-09-08T05:34:33.810Z,1.00
2018-09-08T05:37:05.282Z,0.60
2018-09-08T05:39:36.733Z,0.80
2018-09-08T05:42:08.192Z,0.70
2018-09-08T05:44:39.653Z,0.80
2018-09-08T05:47:11.149Z,0.73
2018-09-08T05:49:42.661Z,0.60
2018-09-08T05:52:14.113Z,0.70
2018-09-08T05:54:45.569Z,0.60
2018-09-08T05:57:17.049Z,0.60
2018-09-08T05:59:48.513Z,0.80
2018-09-08T06:02:19.992Z,0.60
2018-09-08T06:04:51.420Z,0.77
2018-09-08T06:07:22.864Z,0.70
2018-09-08T06:09:54.308Z,0.70
2018-09-08T06:12:25.791Z,0.60
2018-09-08T06:14:57.255Z,0.57
2018-09-08T06:17:28.766Z,0.60
2018-09-08T06:20:00.164Z,0.80
2018-09-08T06:22:31.612Z,0.70
2018-09-08T06:25:03.069Z,0.60
2018-09-08T06:27:34.523Z,0.73
2018-09-08T06:30:05.976Z,0.77
2018-09-08T06:32:37.443Z,0.70
2018-09-08T06:35:08.933Z,0.60
2018-09-08T06:37:40.347Z,0.70
2018-09-08T06:40:11.792Z,0.60
2018-09-08T06:42:43.249Z,0.60
2018-09-08T06:45:14.760Z,0.60
2018-09-08T06:47:46.337Z,0.60
2018-09-08T06:50:17.788Z,0.63
2018-09-08T06:52:49.264Z,0.57
2018-09-08T06:55:20.719Z,0.67
2018-09-08T06:57:52.250Z,0.77
2018-09-08T07:00:23.710Z,0.60
2018-09-08T07:02:55.157Z,0.50
2018-09-08T07:05:26.630Z,0.70
2018-09-08T07:07:58.094Z,0.70
2018-09-08T07:10:29.544Z,0.60
2018-09-08T07:13:00.993Z,0.53
2018-09-08T07:15:32.446Z,0.60
2018-09-08T07:18:04.064Z,0.60
2018-09-08T07:20:35.509Z,0.50
2018-09-08T07:23:06.962Z,0.43
2018-09-08T07:25:38.396Z,0.60
2018-09-08T07:28:09.833Z,0.57
2018-09-08T07:30:41.285Z,0.63
2018-09-08T07:33:12.737Z,0.50
2018-09-08T07:35:44.186Z,0.53
2018-09-08T07:38:15.672Z,0.70
2018-09-08T07:40:47.124Z,0.67
2018-09-08T07:43:18.585Z,0.70
2018-09-08T07:45:50.054Z,0.70
2018-09-08T07:48:21.527Z,0.70
2018-09-08T07:50:53.014Z,0.70
2018-09-08T07:53:24.483Z,0.50
2018-09-08T07:55:55.925Z,0.70
2018-09-08T07:58:27.372Z,0.50
2018-09-08T08:00:58.825Z,0.60
2018-09-08T08:03:30.294Z,0.70
2018-09-08T08:06:01.740Z,0.50
2018-09-08T08:08:33.201Z,0.60
2018-09-08T08:11:04.900Z,0.47
2018-09-08T08:13:36.343Z,0.57
2018-09-08T08:16:07.776Z,0.70
2018-09-08T08:18:39.255Z,0.77
2018-09-08T08:21:10.684Z,0.50
2018-09-08T08:23:42.132Z,0.60
2018-09-08T08:26:13.569Z,0.50
2018-09-08T08:28:45.016Z,0.50
2018-09-08T08:31:16.538Z,0.73
2018-09-08T08:33:47.978Z,1.30
2018-09-08T08:36:19.446Z,2.07
2018-09-08T08:38:50.993Z,2.13
2018-09-08T08:41:22.442Z,2.20
2018-09-08T08:43:53.881Z,2.47
2018-09-08T08:46:25.329Z,2.47
2018-09-08T08:48:56.844Z,1.80
2018-09-08T08:51:34.892Z,1.90
2018-09-08T08:54:11.247Z,1.80
2018-09-08T08:56:42.804Z,1.67
2018-09-08T08:59:14.316Z,2.17
2018-09-08T09:01:45.769Z,1.97
2018-09-08T09:04:17.208Z,1.90
2018-09-08T09:06:48.664Z,2.43
2018-09-08T09:09:20.144Z,1.70
2018-09-08T09:11:52.109Z,2.20
2018-09-08T09:14:23.094Z,1.90
2018-09-08T09:16:54.536Z,2.40
2018-09-08T09:19:32.939Z,2.40
2018-09-08T09:22:10.161Z,2.10
2018-09-08T09:24:56.235Z,2.17
2018-09-08T09:27:28.196Z,2.03
2018-09-08T09:29:59.933Z,2.23
2018-09-08T09:32:31.432Z,2.20
2018-09-08T09:35:03.063Z,2.10
2018-09-08T09:37:34.513Z,2.37
2018-09-08T09:40:06.253Z,2.00
2018-09-08T09:42:37.697Z,2.43
2018-09-08T09:45:09.777Z,2.40
2018-09-08T09:47:41.256Z,2.37
2018-09-08T09:50:13.198Z,2.20
2018-09-08T09:52:44.654Z,1.93
2018-09-08T09:55:16.137Z,2.13
2018-09-08T09:57:47.634Z,2.40
2018-09-08T10:00:24.866Z,2.73
2018-09-08T10:03:01.940Z,2.60
2018-09-08T10:05:34.065Z,2.47
2018-09-08T10:08:05.597Z,2.17
2018-09-08T10:10:37.045Z,2.60
2018-09-08T10:13:08.600Z,2.00
2018-09-08T10:15:40.061Z,2.80
2018-09-08T10:18:11.511Z,2.20
2018-09-08T10:20:43.044Z,2.20
2018-09-08T10:23:14.562Z,2.37
2018-09-08T10:25:46.030Z,1.90
2018-09-08T10:28:17.537Z,2.30
2018-09-08T10:30:49.062Z,2.70
2018-09-08T10:33:20.529Z,2.40
2018-09-08T10:35:51.981Z,2.57
2018-09-08T10:38:23.458Z,2.20
2018-09-08T10:40:54.916Z,2.10
2018-09-08T10:43:26.380Z,2.90
2018-09-08T10:45:57.857Z,2.70
2018-09-08T10:48:29.304Z,2.63
2018-09-08T10:51:04.041Z,2.53
2018-09-08T10:53:35.422Z,2.80
2018-09-08T10:56:06.878Z,2.83
2018-09-08T10:58:38.337Z,2.63
2018-09-08T11:01:09.776Z,2.43
2018-09-08T11:03:41.230Z,2.70
2018-09-08T11:06:12.741Z,2.57
2018-09-08T11:08:44.180Z,3.00
2018-09-08T11:11:15.647Z,2.77
2018-09-08T11:13:47.099Z,2.33
2018-09-08T11:16:18.670Z,2.63
2018-09-08T11:18:50.248Z,2.77
2018-09-08T11:21:22.155Z,2.17
2018-09-08T11:23:53.613Z,3.00
2018-09-08T11:26:25.164Z,2.77
2018-09-08T11:28:56.635Z,2.10
2018-09-08T11:31:28.187Z,2.97
2018-09-08T11:33:59.733Z,2.80
2018-09-08T11:36:31.177Z,2.53
2018-09-08T11:39:02.910Z,2.27
2018-09-08T11:41:34.751Z,2.50
2018-09-08T11:44:06.184Z,2.87
2018-09-08T11:46:37.641Z,2.80
2018-09-08T11:49:09.111Z,3.03
2018-09-08T11:51:40.592Z,2.60
2018-09-08T11:54:12.065Z,3.40
2018-09-08T11:56:43.583Z,2.87
2018-09-08T11:59:15.038Z,2.83
2018-09-08T12:01:46.521Z,3.10
2018-09-08T12:04:17.986Z,3.17
2018-09-08T12:06:49.465Z,3.00
2018-09-08T12:09:20.896Z,3.07
2018-09-08T12:11:52.417Z,2.67
2018-09-08T12:14:23.860Z,2.90
2018-09-08T12:16:55.319Z,2.83
2018-09-08T12:19:26.800Z,2.63
2018-09-08T12:21:58.317Z,2.80
2018-09-08T12:24:29.901Z,3.03
2018-09-08T12:27:01.353Z,3.20
2018-09-08T12:29:32.809Z,2.87
2018-09-08T12:32:04.293Z,2.47
2018-09-08T12:34:35.780Z,3.07
2018-09-08T12:37:07.280Z,2.80
2018-09-08T12:39:38.745Z,2.67
2018-09-08T12:42:10.211Z,3.00
2018-09-08T12:44:41.701Z,3.07
2018-09-08T12:47:13.170Z,2.40
2018-09-08T12:49:44.608Z,3.00
2018-09-08T12:52:16.096Z,3.33
2018-09-08T12:54:47.625Z,2.90
2018-09-08T12:57:19.085Z,2.80
2018-09-08T12:59:50.563Z,2.90
2018-09-08T13:02:22.032Z,2.77
2018-09-08T13:04:53.473Z,2.47
2018-09-08T13:07:24.935Z,2.90
2018-09-08T13:12:51.737Z,2.43
2018-09-08T13:15:23.609Z,3.00
2018-09-08T13:17:55.055Z,3.10
2018-09-08T13:20:26.518Z,2.37
2018-09-08T13:22:57.977Z,2.47
2018-09-08T13:25:29.429Z,2.83
2018-09-08T13:28:00.869Z,2.80
2018-09-08T13:30:32.322Z,3.20
2018-09-08T13:33:03.753Z,2.90
2018-09-08T13:35:35.205Z,2.20
2018-09-08T13:38:06.967Z,2.40
2018-09-08T13:40:38.492Z,2.30
2018-09-08T13:43:09.965Z,2.17
2018-09-08T13:45:41.483Z,2.30
2018-09-08T13:48:12.923Z,2.67
2018-09-08T13:50:44.384Z,2.70
2018-09-08T13:53:15.961Z,2.30
2018-09-08T13:55:47.509Z,2.47
2018-09-08T13:58:19.069Z,2.30
2018-09-08T14:00:50.603Z,2.13
2018-09-08T14:03:22.155Z,2.40
2018-09-08T14:05:53.704Z,2.00
2018-09-08T14:08:25.242Z,2.20
2018-09-08T14:10:56.715Z,2.60
2018-09-08T14:13:28.157Z,2.50
2018-09-08T14:15:59.596Z,2.80
2018-09-08T14:18:31.061Z,2.63
2018-09-08T14:21:02.517Z,3.13
2018-09-08T14:23:33.981Z,2.67
2018-09-08T14:26:05.537Z,3.13
2018-09-08T14:28:37.011Z,3.20
2018-09-08T14:31:08.437Z,3.13
2018-09-08T14:33:39.904Z,2.70
2018-09-08T14:36:11.383Z,3.30
2018-09-08T14:38:42.821Z,2.70
2018-09-08T14:41:14.281Z,3.37
2018-09-08T14:43:45.741Z,3.40
2018-09-08T14:46:17.194Z,3.03
2018-09-08T14:48:48.629Z,3.27
2018-09-08T14:51:20.090Z,3.20
2018-09-08T14:53:51.588Z,3.20
2018-09-08T14:56:23.043Z,2.67
2018-09-08T14:58:54.525Z,2.93
2018-09-08T15:01:26.053Z,3.70
2018-09-08T15:03:57.497Z,3.30
2018-09-08T15:06:28.949Z,2.87
2018-09-08T15:09:00.514Z,3.00
2018-09-08T15:11:31.984Z,3.27
2018-09-08T15:14:03.451Z,2.40
2018-09-08T15:16:34.914Z,3.50
2018-09-08T15:19:06.392Z,2.30
2018-09-08T15:21:37.849Z,2.10
2018-09-08T15:24:09.314Z,2.77
2018-09-08T15:26:40.764Z,2.83
2018-09-08T15:29:12.241Z,3.03
2018-09-08T15:31:43.757Z,2.60
2018-09-08T15:34:15.205Z,3.07
2018-09-08T15:36:46.672Z,3.77
2018-09-08T15:39:18.128Z,6.40
2018-09-08T15:41:49.578Z,8.83
2018-09-08T15:44:21.040Z,7.43
2018-09-08T15:46:52.488Z,9.17
2018-09-08T15:49:23.961Z,8.87
2018-09-08T15:51:55.413Z,7.97
2018-09-08T15:54:26.906Z,8.53
2018-09-08T15:56:58.385Z,7.90
2018-09-08T15:59:30.060Z,7.63
2018-09-08T16:02:01.537Z,7.53
2018-09-08T16:04:33.018Z,7.90
2018-09-08T16:07:04.443Z,6.53
2018-09-08T16:09:36.069Z,7.40
2018-09-08T16:12:07.514Z,5.50
2018-09-08T16:14:38.952Z,6.07
2018-09-08T16:17:10.454Z,6.30
2018-09-08T16:19:41.933Z,5.40
2018-09-08T16:22:13.418Z,5.00
2018-09-08T16:24:44.865Z,5.37
2018-09-08T16:27:16.322Z,4.53
2018-09-08T16:29:47.807Z,4.83
2018-09-08T16:32:19.265Z,3.67
2018-09-08T16:34:50.721Z,3.70
2018-09-08T16:37:22.165Z,3.47
2018-09-08T16:39:53.636Z,4.00
2018-09-08T16:42:25.138Z,3.60
2018-09-08T16:44:56.595Z,3.90
2018-09-08T16:47:28.052Z,3.80
2018-09-08T16:49:59.570Z,3.23
2018-09-08T16:52:30.987Z,3.10
2018-09-08T16:55:02.441Z,2.80
2018-09-08T16:57:33.959Z,3.23
2018-09-08T17:00:05.438Z,3.30
2018-09-08T17:02:36.872Z,3.10
2018-09-08T17:05:08.402Z,2.50
2018-09-08T17:07:39.786Z,3.43
2018-09-08T17:10:11.261Z,3.00
2018-09-08T17:12:42.853Z,2.80
2018-09-08T17:15:14.310Z,3.10
2018-09-08T17:17:45.770Z,2.63
2018-09-08T17:20:17.228Z,2.73
2018-09-08T17:22:48.692Z,2.83
2018-09-08T17:25:20.146Z,2.97
2018-09-08T17:27:51.611Z,2.87
2018-09-08T17:30:23.158Z,2.67
2018-09-08T17:32:54.622Z,3.20
2018-09-08T17:35:26.083Z,3.90
2018-09-08T17:37:57.523Z,2.60
2018-09-08T17:40:28.970Z,2.60
2018-09-08T17:43:00.442Z,3.10
2018-09-08T17:45:31.886Z,2.63
2018-09-08T17:48:03.335Z,2.30
2018-09-08T17:50:34.777Z,2.70
2018-09-08T17:53:06.222Z,3.07
2018-09-08T17:55:37.718Z,2.47
2018-09-08T17:58:09.273Z,2.43
2018-09-08T18:00:40.742Z,2.70
2018-09-08T18:03:12.302Z,2.70
2018-09-08T18:05:43.933Z,2.03
2018-09-08T18:08:22.925Z,3.07
2018-09-08T18:10:55.227Z,2.80
2018-09-08T18:13:26.726Z,2.40
2018-09-08T18:15:58.177Z,3.03
2018-09-08T18:18:29.636Z,2.90
2018-09-08T18:21:01.082Z,2.70
2018-09-08T18:23:32.545Z,2.93
2018-09-08T18:26:03.996Z,2.90
2018-09-08T18:28:35.436Z,2.43
2018-09-08T18:31:06.907Z,3.07
2018-09-08T18:33:38.360Z,2.93
2018-09-08T18:36:09.841Z,2.97
2018-09-08T18:38:41.318Z,3.13
2018-09-08T18:41:12.760Z,3.50
2018-09-08T18:43:44.221Z,3.10
2018-09-08T18:46:15.686Z,3.50
2018-09-08T18:48:47.148Z,3.80
2018-09-08T18:51:18.606Z,4.20
2018-09-08T18:53:50.127Z,3.97
2018-09-08T18:56:21.548Z,3.70
2018-09-08T18:58:52.990Z,3.17
2018-09-08T19:01:24.504Z,4.57
2018-09-08T19:03:55.966Z,3.37
2018-09-08T19:06:27.452Z,3.60
2018-09-08T19:08:58.946Z,3.17
2018-09-08T19:11:30.407Z,3.00
2018-09-08T19:14:01.865Z,3.43
2018-09-08T19:16:33.338Z,2.80
2018-09-08T19:19:04.797Z,2.80
2018-09-08T19:21:36.249Z,3.57
2018-09-08T19:24:13.386Z,4.00
2018-09-08T19:26:44.912Z,2.30
2018-09-08T19:29:22.905Z,2.97
2018-09-08T19:31:54.389Z,2.83
2018-09-08T19:34:25.843Z,3.27
2018-09-08T19:36:57.297Z,2.90
2018-09-08T19:39:28.800Z,2.47
2018-09-08T19:42:00.341Z,3.13
2018-09-08T19:44:31.809Z,2.70
2018-09-08T19:47:08.907Z,2.57
2018-09-08T19:49:40.407Z,2.13
2018-09-08T19:52:17.623Z,2.30
2018-09-08T19:54:49.190Z,2.57
2018-09-08T19:57:26.401Z,2.60
2018-09-08T20:00:04.351Z,2.00
2018-09-08T20:02:35.801Z,2.20
2018-09-08T20:05:07.353Z,2.47
2018-09-08T20:07:45.065Z,2.17
2018-09-08T20:10:16.538Z,2.30
2018-09-08T20:12:54.116Z,1.90
2018-09-08T20:15:25.560Z,2.30
2018-09-08T20:17:56.986Z,1.97
2018-09-08T20:20:28.459Z,2.23
2018-09-08T20:22:59.905Z,2.30
2018-09-08T20:25:31.352Z,1.97
2018-09-08T20:28:02.800Z,1.97
2018-09-08T20:30:34.216Z,1.80
2018-09-08T20:33:05.612Z,1.77
2018-09-08T20:35:37.021Z,2.27
2018-09-08T20:38:08.601Z,1.80
2018-09-08T20:40:39.998Z,1.80
2018-09-08T20:43:11.389Z,1.63
2018-09-08T20:45:42.848Z,1.80
2018-09-08T20:48:14.358Z,1.90
2018-09-08T20:50:45.849Z,1.50
2018-09-08T20:53:17.321Z,1.87
2018-09-08T20:55:48.866Z,1.67
2018-09-08T20:58:20.357Z,1.47
2018-09-08T21:00:51.854Z,1.57
2018-09-08T21:03:23.322Z,1.40
2018-09-08T21:05:54.821Z,1.40
2018-09-08T21:08:26.288Z,2.00
2018-09-08T21:10:57.750Z,1.57
2018-09-08T21:13:29.198Z,1.43
2018-09-08T21:16:00.647Z,1.50
2018-09-08T21:18:32.553Z,1.20
2018-09-08T21:21:04.037Z,1.67
2018-09-08T21:23:35.524Z,1.20
2018-09-08T21:26:06.921Z,1.93
2018-09-08T21:28:38.421Z,1.40
2018-09-08T21:31:09.905Z,1.10
2018-09-08T21:33:41.365Z,1.00
2018-09-08T21:36:12.820Z,1.20
2018-09-08T21:38:44.472Z,1.27
2018-09-08T21:41:16.131Z,1.30
2018-09-08T21:43:47.616Z,1.77
2018-09-08T21:46:19.333Z,1.07
2018-09-08T21:48:50.813Z,1.40
2018-09-08T21:51:22.277Z,1.60
2018-09-08T21:53:53.716Z,1.33
2018-09-08T21:56:25.193Z,1.40
2018-09-08T21:58:56.656Z,1.40
2018-09-08T22:01:28.210Z,1.23
2018-09-08T22:03:59.678Z,1.53
2018-09-08T22:06:31.126Z,1.40
2018-09-08T22:09:04.043Z,1.20
2018-09-08T22:11:35.524Z,1.00
2018-09-08T22:14:06.962Z,1.10
2018-09-08T22:16:38.406Z,1.20
2018-09-08T22:19:09.864Z,1.00
2018-09-08T22:21:42.169Z,1.00
2018-09-08T22:24:13.660Z,1.00
2018-09-08T22:26:57.891Z,0.90
2018-09-08T22:29:29.359Z,0.90
2018-09-08T22:32:00.814Z,1.10
2018-09-08T22:34:32.345Z,1.23
2018-09-08T22:37:04.023Z,1.33
2018-09-08T22:39:35.497Z,1.23
2018-09-08T22:42:06.972Z,1.33
2018-09-08T22:44:38.640Z,1.00
2018-09-08T22:47:10.107Z,0.90
2018-09-08T22:49:41.573Z,0.90
2018-09-08T22:52:13.026Z,1.10
2018-09-08T22:54:44.491Z,1.10
2018-09-08T22:57:15.969Z,0.97
2018-09-08T22:59:47.641Z,1.17
2018-09-08T23:02:18.975Z,1.10
2018-09-08T23:04:50.449Z,0.80
2018-09-08T23:07:21.900Z,0.80
2018-09-08T23:09:53.457Z,0.50
2018-09-08T23:12:25.000Z,0.90
2018-09-08T23:14:56.413Z,0.63
2018-09-08T23:17:27.885Z,0.80
2018-09-08T23:19:59.418Z,0.80
2018-09-08T23:22:30.885Z,0.63
2018-09-08T23:25:02.403Z,0.90
2018-09-08T23:27:33.858Z,0.60
2018-09-08T23:30:05.421Z,0.70
2018-09-08T23:32:36.888Z,0.60
2018-09-08T23:35:08.351Z,0.87
2018-09-08T23:37:39.842Z,0.80
2018-09-08T23:40:11.297Z,0.93
2018-09-08T23:42:42.754Z,0.70
2018-09-08T23:45:14.230Z,0.53
2018-09-08T23:47:45.694Z,0.80
2018-09-08T23:50:17.184Z,0.80
2018-09-08T23:52:48.638Z,0.90
2018-09-08T23:55:20.122Z,0.80
2018-09-08T23:57:51.563Z,0.83
